Погода Любимкана 2 недели

Тверская область, Россия

23 мая-05 июня
  • 23мая
    Сегодня
    +9°
    +22°
    Ясно и безоблачно
    ВремяПогодаТемператураВлажностьДавлениеВетер, м/сВероятность осадков
    00:00Ясно и безоблачно+11°C56 %749 мм1.2 м/с2 %
    03:00Ясно и безоблачно+9°C61 %750 мм1.1 м/с2 %
    06:00Ясно и безоблачно+10°C64 %751 мм1.3 м/с2 %
    09:00Ясно и безоблачно+17°C52 %752 мм1.2 м/с2 %
    12:00Ясно и безоблачно+20°C35 %752 мм2.4 м/с2 %
    15:00Ясно и безоблачно+22°C33 %752 мм2.5 м/с2 %
    18:00Ясно и безоблачно+22°C34 %751 мм2.0 м/с2 %
    21:00Ясно и безоблачно+17°C55 %752 мм1.1 м/с2 %
  • 24мая
    Пятница
    +8°
    +23°
    Ясно и безоблачно
    ВремяПогодаТемператураВлажностьДавлениеВетер, м/сВероятность осадков
    00:00Практически безоблачно+12°C74 %752 мм1.0 м/с2 %
    03:00Ясно и безоблачно+10°C78 %753 мм0.8 м/с2 %
    06:00Ясно и безоблачно+11°C71 %754 мм1.0 м/с2 %
    09:00Ясно и безоблачно+17°C51 %755 мм1.3 м/с2 %
    12:00Ясно и безоблачно+21°C38 %755 мм2.7 м/с2 %
    15:00Ясно и безоблачно+22°C35 %754 мм2.8 м/с2 %
    18:00Ясно и безоблачно+22°C35 %753 мм2.1 м/с2 %
    21:00Ясно и безоблачно+17°C52 %753 мм1.3 м/с2 %
  • 25мая
    Суббота
    +11°
    +24°
    Ясно и безоблачно
    ВремяПогодаТемператураВлажностьДавлениеВетер, м/сВероятность осадков
    00:00Ясно и безоблачно+11°C62 %752 мм1.3 м/с2 %
    03:00Ясно и безоблачно+9°C62 %753 мм1.1 м/с2 %
    06:00Ясно и безоблачно+10°C68 %752 мм1.4 м/с2 %
    09:00Ясно и безоблачно+17°C53 %752 мм1.5 м/с2 %
    12:00Ясно и безоблачно+21°C37 %752 мм2.5 м/с2 %
    15:00Ясно и безоблачно+23°C33 %751 мм2.5 м/с2 %
    18:00Ясно и безоблачно+24°C34 %750 мм1.9 м/с2 %
    21:00Ясно и безоблачно+19°C58 %749 мм0.9 м/с2 %
  • 26мая
    Воскресенье
    +10°
    +25°
    Облачно с прояснениями, небольшой дождь
    ВремяПогодаТемператураВлажностьДавлениеВетер, м/сВероятность осадков
    00:00Ясно и безоблачно+13°C72 %749 мм0.9 м/с2 %
    03:00Ясно и безоблачно+12°C77 %749 мм0.8 м/с2 %
    06:00Ясно и безоблачно+14°C70 %749 мм1.1 м/с2 %
    09:00Ясно и безоблачно+21°C51 %749 мм1.2 м/с4 %
    12:00Небольшая облачность+24°C42 %750 мм2.6 м/с28 %
    15:00Облачно с прояснениями, небольшой дождь+23°C58 %750 мм2.3 м/с53 %
    18:00Облачно с прояснениями, небольшой дождь+21°C72 %750 мм1.7 м/с52 %
    21:00Ясно и безоблачно+18°C79 %750 мм1.1 м/с22 %
  • 27мая
    Понедельник
    +11°
    +24°
    Ясно и безоблачно
    ВремяПогодаТемператураВлажностьДавлениеВетер, м/сВероятность осадков
    00:00Ясно и безоблачно+13°C62 %750 мм1.5 м/с2 %
    03:00Ясно и безоблачно+11°C68 %752 мм1.1 м/с2 %
    06:00Ясно и безоблачно+13°C65 %752 мм0.9 м/с3 %
    09:00Ясно и безоблачно+19°C54 %753 мм1.2 м/с2 %
    12:00Ясно и безоблачно+21°C37 %753 мм2.3 м/с5 %
    15:00Ясно и безоблачно+23°C34 %752 мм2.0 м/с6 %
    18:00Ясно и безоблачно+23°C37 %752 мм1.5 м/с5 %
    21:00Ясно и безоблачно+19°C60 %751 мм1.0 м/с2 %
Мы используем cookies
Соглашаюсь